PWSweather.com
Personal Weather Stations
Station Observations
2450ARBOR
Round Rock, TX 78681

Round Rock, TX 78681

Lat: 30.535239, Lon: -97.728137

Elevation: 800

Station Type:

High Low Average
Temperature 58.8°F14.9°C 36.0°F2.2°C 46.2°F7.9°C
Dew Point 41.0°F5.0°C 27.0°F-2.8°C 32.2°F0.1°C
Winds 5.0 mph 8.0 kmh Calm Calm 1.0 mph SE1.6 kmh SE
Wind Gusts 6.0 mph9.7 kmh -- 2.0 mph3.2 kmh
Humidity 77% 37% 59%
Pressure 30.33 in1027.1 mb 30.20 in1022.7 mb -
Precipitation 0.00 in0.0 mm - -
Hour Temp Dew Point Humidity Winds Wind Gusts Pressure Precip Precip Rate Daily Precip Total
12:01 AM 37.0°F2.8°C 29.0°F-1.7°C 72% Calm Calm -- 30.29 in1025.7 mb 0.00 in0.0 mm 0.00 in0.0 mm 0.00 in0.0 mm
12:10 AM 37.0°F2.8°C 29.0°F-1.7°C 72% Calm Calm -- 30.29 in1025.7 mb 0.00 in0.0 mm 0.00 in0.0 mm 0.00 in0.0 mm
12:51 AM 36.9°F2.7°C 28.0°F-2.2°C 70% Calm Calm -- 30.29 in1025.7 mb 0.00 in0.0 mm 0.00 in0.0 mm 0.00 in0.0 mm
01:10 AM 37.4°F3.0°C 29.0°F-1.7°C 72% Calm Calm -- 30.29 in1025.7 mb 0.00 in0.0 mm 0.00 in0.0 mm 0.00 in0.0 mm
01:31 AM 37.8°F3.2°C 27.0°F-2.8°C 65% Calm Calm -- 30.29 in1025.7 mb 0.00 in0.0 mm 0.00 in0.0 mm 0.00 in0.0 mm
01:51 AM 37.9°F3.3°C 27.0°F-2.8°C 65% Calm Calm -- 30.29 in1025.7 mb 0.00 in0.0 mm 0.00 in0.0 mm 0.00 in0.0 mm
02:01 AM 38.1°F3.4°C 27.0°F-2.8°C 65% Calm Calm -- 30.27 in1025.1 mb 0.00 in0.0 mm 0.00 in0.0 mm 0.00 in0.0 mm
02:31 AM 38.1°F3.4°C 28.0°F-2.2°C 66% Calm Calm -- 30.27 in1025.1 mb 0.00 in0.0 mm 0.00 in0.0 mm 0.00 in0.0 mm
03:01 AM 37.2°F2.9°C 28.0°F-2.2°C 70% Calm Calm -- 30.27 in1025.1 mb 0.00 in0.0 mm 0.00 in0.0 mm 0.00 in0.0 mm
03:21 AM 36.7°F2.6°C 28.0°F-2.2°C 72% Calm Calm -- 30.27 in1025.1 mb 0.00 in0.0 mm 0.00 in0.0 mm 0.00 in0.0 mm
03:31 AM 36.3°F2.4°C 28.0°F-2.2°C 73% Calm Calm -- 30.27 in1025.1 mb 0.00 in0.0 mm 0.00 in0.0 mm 0.00 in0.0 mm
04:01 AM 36.0°F2.2°C 29.0°F-1.7°C 75% Calm Calm -- 30.25 in1024.4 mb 0.00 in0.0 mm 0.00 in0.0 mm 0.00 in0.0 mm
04:31 AM 36.3°F2.4°C 29.0°F-1.7°C 75% Calm Calm -- 30.25 in1024.4 mb 0.00 in0.0 mm 0.00 in0.0 mm 0.00 in0.0 mm
05:10 AM 37.6°F3.1°C 29.0°F-1.7°C 71% Calm Calm -- 30.25 in1024.4 mb 0.00 in0.0 mm 0.00 in0.0 mm 0.00 in0.0 mm
05:51 AM 37.6°F3.1°C 30.0°F-1.1°C 73% Calm Calm -- 30.25 in1024.4 mb 0.00 in0.0 mm 0.00 in0.0 mm 0.00 in0.0 mm
06:11 AM 37.2°F2.9°C 30.0°F-1.1°C 74% Calm Calm -- 30.25 in1024.4 mb 0.00 in0.0 mm 0.00 in0.0 mm 0.00 in0.0 mm
07:01 AM 36.7°F2.6°C 30.0°F-1.1°C 75% Calm Calm -- 30.26 in1024.7 mb 0.00 in0.0 mm 0.00 in0.0 mm 0.00 in0.0 mm
07:11 AM 36.5°F2.5°C 30.0°F-1.1°C 76% Calm Calm -- 30.26 in1024.7 mb 0.00 in0.0 mm 0.00 in0.0 mm 0.00 in0.0 mm
08:01 AM 37.6°F3.1°C 30.0°F-1.1°C 73% Calm Calm -- 30.29 in1025.7 mb 0.00 in0.0 mm 0.00 in0.0 mm 0.00 in0.0 mm
08:21 AM 37.9°F3.3°C 29.0°F-1.7°C 69% Calm Calm 1.0 mph1.6 kmh 30.29 in1025.7 mb 0.00 in0.0 mm 0.00 in0.0 mm 0.00 in0.0 mm
08:51 AM 38.7°F3.7°C 28.0°F-2.2°C 64% Calm Calm 2.0 mph3.2 kmh 30.29 in1025.7 mb 0.00 in0.0 mm 0.00 in0.0 mm 0.00 in0.0 mm
09:41 AM 41.2°F5.1°C 28.0°F-2.2°C 59% 1.0 mph NE1.6 kmh NE 1.0 mph1.6 kmh 30.30 in1026.1 mb 0.00 in0.0 mm 0.00 in0.0 mm 0.00 in0.0 mm
09:51 AM 41.7°F5.4°C 27.0°F-2.8°C 56% 2.0 mph ENE3.2 kmh ENE 2.0 mph3.2 kmh 30.30 in1026.1 mb 0.00 in0.0 mm 0.00 in0.0 mm 0.00 in0.0 mm
10:31 AM 43.7°F6.5°C 28.0°F-2.2°C 53% 2.0 mph S3.2 kmh S 3.0 mph4.8 kmh 30.32 in1026.8 mb 0.00 in0.0 mm 0.00 in0.0 mm 0.00 in0.0 mm
10:40 AM 45.9°F7.7°C 28.0°F-2.2°C 49% 1.0 mph SSE1.6 kmh SSE 5.0 mph8.0 kmh 30.32 in1026.8 mb 0.00 in0.0 mm 0.00 in0.0 mm 0.00 in0.0 mm
11:11 AM 46.6°F8.1°C 29.0°F-1.7°C 50% 1.0 mph E1.6 kmh E 2.0 mph3.2 kmh 30.32 in1026.8 mb 0.00 in0.0 mm 0.00 in0.0 mm 0.00 in0.0 mm
11:31 AM 46.9°F8.3°C 28.0°F-2.2°C 47% 1.0 mph SE1.6 kmh SE 1.0 mph1.6 kmh 30.32 in1026.8 mb 0.00 in0.0 mm 0.00 in0.0 mm 0.00 in0.0 mm
11:40 AM 48.7°F9.3°C 28.0°F-2.2°C 44% 1.0 mph SSE1.6 kmh SSE 3.0 mph4.8 kmh 30.32 in1026.8 mb 0.00 in0.0 mm 0.00 in0.0 mm 0.00 in0.0 mm
12:10 PM 52.0°F11.1°C 29.0°F-1.7°C 41% 1.0 mph WNW1.6 kmh WNW 2.0 mph3.2 kmh 30.33 in1027.1 mb 0.00 in0.0 mm 0.00 in0.0 mm 0.00 in0.0 mm
12:21 PM 51.1°F10.6°C 29.0°F-1.7°C 43% 2.0 mph S3.2 kmh S 4.0 mph6.4 kmh 30.33 in1027.1 mb 0.00 in0.0 mm 0.00 in0.0 mm 0.00 in0.0 mm
01:10 PM 54.0°F12.2°C 30.0°F-1.1°C 39% 5.0 mph ENE8.0 kmh ENE 5.0 mph8.0 kmh 30.32 in1026.8 mb 0.00 in0.0 mm 0.00 in0.0 mm 0.00 in0.0 mm
01:31 PM 54.3°F12.4°C 29.0°F-1.7°C 37% 3.0 mph NE4.8 kmh NE 6.0 mph9.7 kmh 30.32 in1026.8 mb 0.00 in0.0 mm 0.00 in0.0 mm 0.00 in0.0 mm
02:01 PM 56.5°F13.6°C 30.0°F-1.1°C 37% 3.0 mph S4.8 kmh S 4.0 mph6.4 kmh 30.27 in1025.1 mb 0.00 in0.0 mm 0.00 in0.0 mm 0.00 in0.0 mm
02:21 PM 56.7°F13.7°C 31.0°F-0.6°C 38% 2.0 mph SSE3.2 kmh SSE 3.0 mph4.8 kmh 30.27 in1025.1 mb 0.00 in0.0 mm 0.00 in0.0 mm 0.00 in0.0 mm
02:31 PM 58.8°F14.9°C 33.0°F0.6°C 37% 1.0 mph ESE1.6 kmh ESE 2.0 mph3.2 kmh 30.27 in1025.1 mb 0.00 in0.0 mm 0.00 in0.0 mm 0.00 in0.0 mm
03:21 PM 56.5°F13.6°C 33.0°F0.6°C 41% 1.0 mph S1.6 kmh S 2.0 mph3.2 kmh 30.24 in1024.0 mb 0.00 in0.0 mm 0.00 in0.0 mm 0.00 in0.0 mm
03:31 PM 56.8°F13.8°C 33.0°F0.6°C 40% 3.0 mph NNE4.8 kmh NNE 4.0 mph6.4 kmh 30.24 in1024.0 mb 0.00 in0.0 mm 0.00 in0.0 mm 0.00 in0.0 mm
04:01 PM 55.6°F13.1°C 34.0°F1.1°C 43% 2.0 mph 3.2 kmh 2.0 mph3.2 kmh 30.21 in1023.0 mb 0.00 in0.0 mm 0.00 in0.0 mm 0.00 in0.0 mm
04:10 PM 56.3°F13.5°C 33.0°F0.6°C 41% 3.0 mph 4.8 kmh 5.0 mph8.0 kmh 30.21 in1023.0 mb 0.00 in0.0 mm 0.00 in0.0 mm 0.00 in0.0 mm
04:51 PM 55.6°F13.1°C 35.0°F1.7°C 45% 2.0 mph S3.2 kmh S 3.0 mph4.8 kmh 30.21 in1023.0 mb 0.00 in0.0 mm 0.00 in0.0 mm 0.00 in0.0 mm
05:40 PM 53.1°F11.7°C 36.0°F2.2°C 52% 1.0 mph SSE1.6 kmh SSE 2.0 mph3.2 kmh 30.20 in1022.7 mb 0.00 in0.0 mm 0.00 in0.0 mm 0.00 in0.0 mm
05:51 PM 52.9°F11.6°C 36.0°F2.2°C 53% Calm Calm 3.0 mph4.8 kmh 30.20 in1022.7 mb 0.00 in0.0 mm 0.00 in0.0 mm 0.00 in0.0 mm
06:20 PM 52.2°F11.2°C 37.0°F2.8°C 56% 2.0 mph SE3.2 kmh SE 4.0 mph6.4 kmh 30.20 in1022.7 mb 0.00 in0.0 mm 0.00 in0.0 mm 0.00 in0.0 mm
06:40 PM 51.8°F11.0°C 37.0°F2.8°C 57% Calm Calm 1.0 mph1.6 kmh 30.20 in1022.7 mb 0.00 in0.0 mm 0.00 in0.0 mm 0.00 in0.0 mm
07:11 PM 50.9°F10.5°C 36.0°F2.2°C 57% Calm Calm 3.0 mph4.8 kmh 30.20 in1022.7 mb 0.00 in0.0 mm 0.00 in0.0 mm 0.00 in0.0 mm
07:31 PM 50.4°F10.2°C 36.0°F2.2°C 58% 1.0 mph ESE1.6 kmh ESE 2.0 mph3.2 kmh 30.20 in1022.7 mb 0.00 in0.0 mm 0.00 in0.0 mm 0.00 in0.0 mm
07:40 PM 50.0°F10.0°C 36.0°F2.2°C 59% 2.0 mph WNW3.2 kmh WNW 3.0 mph4.8 kmh 30.20 in1022.7 mb 0.00 in0.0 mm 0.00 in0.0 mm 0.00 in0.0 mm
08:31 PM 48.9°F9.4°C 37.0°F2.8°C 64% 1.0 mph S1.6 kmh S 3.0 mph4.8 kmh 30.21 in1023.0 mb 0.00 in0.0 mm 0.00 in0.0 mm 0.00 in0.0 mm
08:41 PM 48.7°F9.3°C 37.0°F2.8°C 64% 1.0 mph 1.6 kmh 6.0 mph9.7 kmh 30.21 in1023.0 mb 0.00 in0.0 mm 0.00 in0.0 mm 0.00 in0.0 mm
09:20 PM 48.6°F9.2°C 36.0°F2.2°C 62% 2.0 mph S3.2 kmh S 3.0 mph4.8 kmh 30.22 in1023.4 mb 0.00 in0.0 mm 0.00 in0.0 mm 0.00 in0.0 mm
09:31 PM 48.6°F9.2°C 36.0°F2.2°C 62% 2.0 mph ESE3.2 kmh ESE 4.0 mph6.4 kmh 30.22 in1023.4 mb 0.00 in0.0 mm 0.00 in0.0 mm 0.00 in0.0 mm
10:11 PM 48.4°F9.1°C 37.0°F2.8°C 65% 1.0 mph ENE1.6 kmh ENE 2.0 mph3.2 kmh 30.22 in1023.4 mb 0.00 in0.0 mm 0.00 in0.0 mm 0.00 in0.0 mm
10:20 PM 48.2°F9.0°C 37.0°F2.8°C 66% 1.0 mph SSE1.6 kmh SSE 2.0 mph3.2 kmh 30.22 in1023.4 mb 0.00 in0.0 mm 0.00 in0.0 mm 0.00 in0.0 mm
11:01 PM 47.8°F8.8°C 38.0°F3.3°C 69% 2.0 mph SSE3.2 kmh SSE 2.0 mph3.2 kmh 30.22 in1023.4 mb 0.00 in0.0 mm 0.00 in0.0 mm 0.00 in0.0 mm
11:11 PM 47.8°F8.8°C 38.0°F3.3°C 70% 1.0 mph ENE1.6 kmh ENE 5.0 mph8.0 kmh 30.22 in1023.4 mb 0.00 in0.0 mm 0.00 in0.0 mm 0.00 in0.0 mm
11:40 PM 47.8°F8.8°C 39.0°F3.9°C 72% 2.0 mph SSE3.2 kmh SSE 3.0 mph4.8 kmh 30.22 in1023.4 mb 0.00 in0.0 mm 0.00 in0.0 mm 0.00 in0.0 mm